createdAt,value
2023-10-18T00:01:29.301Z,100232.63
2023-10-18T00:03:56.964Z,100228.31
2023-10-18T00:06:24.928Z,100229.97
2023-10-18T00:09:20.793Z,100232.47
2023-10-18T00:11:49.448Z,100231.59
2023-10-18T00:14:16.294Z,100224.63
2023-10-18T00:16:42.988Z,100222.00
2023-10-18T00:19:09.904Z,100216.84
2023-10-18T00:21:36.979Z,100209.91
2023-10-18T00:24:04.114Z,100203.72
2023-10-18T00:26:30.916Z,100200.28
2023-10-18T00:28:57.633Z,100205.44
2023-10-18T00:31:24.435Z,100209.78
2023-10-18T00:33:51.305Z,100208.03
2023-10-18T00:36:18.289Z,100200.34
2023-10-18T00:38:46.011Z,100196.84
2023-10-18T00:41:23.880Z,100200.38
2023-10-18T00:43:54.848Z,100193.47
2023-10-18T00:46:22.537Z,100177.78
2023-10-18T00:48:49.857Z,100180.25
2023-10-18T00:51:19.857Z,100174.31
2023-10-18T00:53:48.177Z,100171.72
2023-10-18T00:56:16.825Z,100174.25
2023-10-18T00:58:45.413Z,100166.53
2023-10-18T01:01:12.675Z,100169.22
2023-10-18T01:03:49.945Z,100162.94
2023-10-18T01:06:22.697Z,100160.47
2023-10-18T01:08:50.324Z,100164.69
2023-10-18T01:11:24.097Z,100153.44
2023-10-18T01:13:50.729Z,100155.19
2023-10-18T01:16:24.606Z,100156.91
2023-10-18T01:18:53.535Z,100156.91
2023-10-18T01:21:21.746Z,100151.38
2023-10-18T01:23:54.303Z,100148.88
2023-10-18T01:26:28.545Z,100154.13
2023-10-18T01:28:56.862Z,100151.63
2023-10-18T01:31:24.471Z,100144.78
2023-10-18T01:33:52.486Z,100142.03
2023-10-18T01:36:22.349Z,100135.97
2023-10-18T01:38:53.426Z,100135.97
2023-10-18T01:41:27.429Z,100134.28
2023-10-18T01:44:08.569Z,100138.56
2023-10-18T01:46:36.146Z,100136.75
2023-10-18T01:49:03.354Z,100133.31
2023-10-18T01:51:30.209Z,100123.91
2023-10-18T01:53:57.006Z,100127.34
2023-10-18T01:56:24.061Z,100125.53
2023-10-18T01:58:51.528Z,100127.34
2023-10-18T02:01:18.376Z,100119.38
2023-10-18T02:03:46.491Z,100125.53
2023-10-18T02:06:15.604Z,100131.56
2023-10-18T02:08:42.577Z,100129.88
2023-10-18T02:11:13.187Z,100126.47
2023-10-18T02:13:43.315Z,100127.34
2023-10-18T02:16:17.662Z,100119.41
2023-10-18T02:18:48.105Z,100118.63
2023-10-18T02:21:15.714Z,100115.19
2023-10-18T02:23:42.696Z,100124.69
2023-10-18T02:26:28.260Z,100127.16
2023-10-18T02:28:55.101Z,100119.34
2023-10-18T02:31:24.962Z,100117.56
2023-10-18T02:33:54.654Z,100112.38
2023-10-18T02:36:33.579Z,100121.00
2023-10-18T02:39:01.600Z,100113.34
2023-10-18T02:41:28.366Z,100111.63
2023-10-18T02:43:56.228Z,100107.44
2023-10-18T02:46:27.225Z,100108.19
2023-10-18T02:48:55.780Z,100103.03
2023-10-18T02:51:25.457Z,100095.97
2023-10-18T02:53:54.124Z,100094.03
2023-10-18T02:56:28.694Z,100083.53
2023-10-18T02:58:59.274Z,100079.34
2023-10-18T03:01:29.250Z,100075.22
2023-10-18T03:03:56.736Z,100075.84
2023-10-18T03:06:29.436Z,100069.84
2023-10-18T03:08:59.926Z,100077.97
2023-10-18T03:11:26.888Z,100083.88
2023-10-18T03:13:53.777Z,100081.28
2023-10-18T03:16:40.482Z,100074.25
2023-10-18T03:19:13.945Z,100082.19
2023-10-18T03:21:43.270Z,100073.22
2023-10-18T03:24:10.530Z,100069.91
2023-10-18T03:26:37.406Z,100067.31
2023-10-18T03:29:07.084Z,100054.16
2023-10-18T03:31:42.896Z,100062.03
2023-10-18T03:34:21.459Z,100051.78
2023-10-18T03:36:53.590Z,100061.44
2023-10-18T03:39:21.439Z,100051.69
2023-10-18T03:41:51.266Z,100056.13
2023-10-18T03:44:33.658Z,100059.63
2023-10-18T03:47:13.069Z,100047.47
2023-10-18T03:49:40.052Z,100044.72
2023-10-18T03:52:13.338Z,100041.25
2023-10-18T03:54:55.726Z,100038.78
2023-10-18T03:57:29.703Z,100030.97
2023-10-18T03:59:59.563Z,100020.38
2023-10-18T04:02:26.837Z,100019.50
2023-10-18T04:04:59.350Z,100017.91
2023-10-18T04:07:28.200Z,100012.66
2023-10-18T04:09:55.657Z,100019.59
2023-10-18T04:12:23.784Z,100022.31
2023-10-18T04:14:54.269Z,100021.53
2023-10-18T04:17:32.847Z,100020.63
2023-10-18T04:20:24.590Z,100021.59
2023-10-18T04:22:54.453Z,100008.59
2023-10-18T04:25:33.280Z,100000.06
2023-10-18T04:28:00.864Z,99999.91
2023-10-18T04:30:31.597Z,99989.53
2023-10-18T04:33:01.942Z,99995.41
2023-10-18T04:35:46.254Z,99995.38
2023-10-18T04:38:31.291Z,99992.84
2023-10-18T04:41:01.657Z,99991.94
2023-10-18T04:43:34.104Z,99990.25
2023-10-18T04:46:05.722Z,99984.22
2023-10-18T04:48:50.692Z,99982.34
2023-10-18T04:51:36.304Z,99988.56
2023-10-18T04:54:11.213Z,99988.56
2023-10-18T04:56:39.485Z,99984.28
2023-10-18T04:59:12.919Z,99975.53
2023-10-18T05:01:55.975Z,99968.50
2023-10-18T05:04:35.788Z,99969.50
2023-10-18T05:07:11.675Z,99967.75
2023-10-18T05:09:45.057Z,99969.47
2023-10-18T05:12:16.530Z,99968.66
2023-10-18T05:17:19.075Z,99966.06
2023-10-18T05:19:46.491Z,99965.16
2023-10-18T05:22:26.721Z,99959.91
2023-10-18T05:25:15.317Z,99953.94
2023-10-18T05:28:01.773Z,99958.97
2023-10-18T05:30:49.228Z,99955.56
2023-10-18T05:33:18.040Z,99953.84
2023-10-18T05:35:48.596Z,99956.50
2023-10-18T05:38:15.272Z,99952.13
2023-10-18T05:40:42.058Z,99948.53
2023-10-18T05:43:14.090Z,99939.81
2023-10-18T05:45:44.247Z,99937.22
2023-10-18T05:48:14.164Z,99933.88
2023-10-18T05:50:41.305Z,99924.28
2023-10-18T05:53:13.858Z,99940.66
2023-10-18T05:55:40.701Z,99932.09
2023-10-18T05:58:07.492Z,99932.88
2023-10-18T06:00:34.746Z,99940.78
2023-10-18T06:03:01.468Z,99938.09
2023-10-18T06:05:37.436Z,99943.41
2023-10-18T06:08:05.869Z,99929.41
2023-10-18T06:10:33.621Z,99932.06
2023-10-18T06:13:11.370Z,99928.63
2023-10-18T06:15:45.787Z,99921.56
2023-10-18T06:18:19.558Z,99925.09
2023-10-18T06:20:46.932Z,99924.41
2023-10-18T06:23:34.002Z,99925.34
2023-10-18T06:26:09.730Z,99927.72
2023-10-18T06:28:38.900Z,99927.63
2023-10-18T06:31:05.814Z,99924.34
2023-10-18T06:33:36.949Z,99923.47
2023-10-18T06:36:13.477Z,99922.56
2023-10-18T06:38:40.662Z,99920.88
2023-10-18T06:41:12.940Z,99920.91
2023-10-18T06:43:40.201Z,99921.03
2023-10-18T06:46:10.559Z,99921.06
2023-10-18T06:48:37.553Z,99914.91
2023-10-18T06:51:12.918Z,99920.13
2023-10-18T06:53:40.035Z,99915.88
2023-10-18T06:56:20.893Z,99919.44
2023-10-18T06:58:47.978Z,99919.50
2023-10-18T07:01:21.547Z,99918.66
2023-10-18T07:03:49.504Z,99924.81
2023-10-18T07:06:26.201Z,99916.13
2023-10-18T07:08:53.163Z,99919.66
2023-10-18T07:11:26.399Z,99908.44
2023-10-18T07:13:56.077Z,99902.34
2023-10-18T07:16:35.261Z,99899.81
2023-10-18T07:19:22.696Z,99895.53
2023-10-18T07:21:50.008Z,99889.50
2023-10-18T07:24:18.973Z,99894.75
2023-10-18T07:26:47.880Z,99902.53
2023-10-18T07:29:17.577Z,99898.28
2023-10-18T07:31:47.827Z,99890.50
2023-10-18T07:34:30.645Z,99895.72
2023-10-18T07:36:57.875Z,99890.53
2023-10-18T07:39:27.181Z,99880.22
2023-10-18T07:41:55.395Z,99881.06
2023-10-18T07:44:22.253Z,99872.44
2023-10-18T07:46:48.977Z,99876.78
2023-10-18T07:49:16.254Z,99869.88
2023-10-18T07:51:44.827Z,99876.84
2023-10-18T07:54:16.292Z,99873.38
2023-10-18T07:56:52.422Z,99860.41
2023-10-18T07:59:30.045Z,99850.84
2023-10-18T08:02:24.529Z,99850.84
2023-10-18T08:04:52.539Z,99850.81
2023-10-18T08:07:23.505Z,99848.22
2023-10-18T08:09:53.033Z,99836.91
2023-10-18T08:12:26.190Z,99829.13
2023-10-18T08:14:55.778Z,99837.75
2023-10-18T08:17:34.849Z,99841.22
2023-10-18T08:20:20.818Z,99828.19
2023-10-18T08:22:47.909Z,99832.47
2023-10-18T08:25:47.190Z,99828.09
2023-10-18T08:28:15.293Z,99822.81
2023-10-18T08:30:44.589Z,99821.03
2023-10-18T08:33:11.826Z,99816.69
2023-10-18T08:35:38.957Z,99824.44
2023-10-18T08:38:05.927Z,99814.03
2023-10-18T08:40:35.926Z,99813.13
2023-10-18T08:43:13.798Z,99813.06
2023-10-18T08:45:50.026Z,99803.53
2023-10-18T08:48:29.584Z,99800.97
2023-10-18T08:51:00.649Z,99793.00
2023-10-18T08:53:28.097Z,99787.72
2023-10-18T08:55:58.694Z,99780.78
2023-10-18T08:58:32.031Z,99780.69
2023-10-18T09:00:58.700Z,99773.69
2023-10-18T09:03:26.164Z,99775.34
2023-10-18T09:06:04.308Z,99784.84
2023-10-18T09:08:39.505Z,99778.66
2023-10-18T09:11:27.082Z,99787.22
2023-10-18T09:14:09.356Z,99782.06
2023-10-18T09:16:39.170Z,99775.13
2023-10-18T09:19:11.132Z,99775.97
2023-10-18T09:21:52.613Z,99771.50
2023-10-18T09:24:24.802Z,99764.34
2023-10-18T09:26:52.406Z,99766.72
2023-10-18T09:29:19.553Z,99760.56
2023-10-18T09:32:02.757Z,99753.59
2023-10-18T09:34:35.638Z,99755.81
2023-10-18T09:37:05.896Z,99751.31
2023-10-18T09:39:44.917Z,99746.63
2023-10-18T09:42:17.233Z,99740.53
2023-10-18T09:44:44.516Z,99728.28
2023-10-18T09:47:11.760Z,99728.03
2023-10-18T09:49:44.388Z,99727.13
2023-10-18T09:52:14.487Z,99723.22
2023-10-18T09:54:51.253Z,99718.47
2023-10-18T09:57:25.095Z,99716.84
2023-10-18T09:59:55.144Z,99712.53
2023-10-18T10:02:22.370Z,99708.00
2023-10-18T10:05:03.733Z,99705.97
2023-10-18T10:07:39.923Z,99691.94
2023-10-18T10:10:18.833Z,99682.78
2023-10-18T10:12:46.263Z,99683.03
2023-10-18T10:15:15.804Z,99675.66
2023-10-18T10:17:46.634Z,99676.69
2023-10-18T10:20:16.347Z,99689.06
2023-10-18T10:22:46.726Z,99689.78
2023-10-18T10:25:38.310Z,99695.09
2023-10-18T10:28:16.695Z,99676.91
2023-10-18T10:30:46.225Z,99662.09
2023-10-18T10:33:15.996Z,99653.50
2023-10-18T10:35:46.494Z,99653.16
2023-10-18T10:38:24.388Z,99647.75
2023-10-18T10:41:14.346Z,99646.28
2023-10-18T10:44:09.985Z,99640.84
2023-10-18T10:46:38.932Z,99648.44
2023-10-18T10:49:50.595Z,99641.13
2023-10-18T10:52:21.028Z,99635.94
2023-10-18T10:54:53.099Z,99623.31
2023-10-18T10:57:20.704Z,99623.94
2023-10-18T10:59:56.944Z,99604.88
2023-10-18T11:02:40.690Z,99604.72
2023-10-18T11:05:17.500Z,99597.13
2023-10-18T11:07:44.894Z,99583.69
2023-10-18T11:10:18.620Z,99579.75
2023-10-18T11:12:49.201Z,99584.59
2023-10-18T11:15:18.793Z,99573.66
2023-10-18T11:17:48.722Z,99566.44
2023-10-18T11:20:21.554Z,99569.53
2023-10-18T11:22:55.642Z,99561.78
2023-10-18T11:25:31.878Z,99554.53
2023-10-18T11:28:22.359Z,99534.72
2023-10-18T11:30:51.297Z,99540.78
2023-10-18T11:33:21.694Z,99538.03
2023-10-18T11:35:49.975Z,99541.50
2023-10-18T11:38:21.226Z,99535.94
2023-10-18T11:40:52.145Z,99523.13
2023-10-18T11:43:28.930Z,99519.19
2023-10-18T11:46:08.627Z,99518.44
2023-10-18T11:48:38.595Z,99512.53
2023-10-18T11:51:07.672Z,99508.66
2023-10-18T11:53:36.450Z,99495.22
2023-10-18T11:56:10.150Z,99481.72
2023-10-18T11:58:38.631Z,99486.41
2023-10-18T12:01:18.606Z,99481.69
2023-10-18T12:03:46.105Z,99485.81
2023-10-18T12:06:13.197Z,99482.19
2023-10-18T12:09:03.381Z,99470.53
2023-10-18T12:11:30.099Z,99469.53
2023-10-18T12:13:57.164Z,99469.88
2023-10-18T12:16:24.318Z,99472.78
2023-10-18T12:18:51.124Z,99465.03
2023-10-18T12:21:17.812Z,99448.94
2023-10-18T12:23:45.801Z,99459.38
2023-10-18T12:26:12.966Z,99459.75
2023-10-18T12:28:42.825Z,99449.06
2023-10-18T12:31:18.141Z,99438.34
2023-10-18T12:33:51.045Z,99434.25
2023-10-18T12:36:24.330Z,99442.16
2023-10-18T12:38:51.626Z,99429.34
2023-10-18T12:41:29.093Z,99429.47
2023-10-18T12:43:55.932Z,99435.50
2023-10-18T12:46:24.026Z,99433.00
2023-10-18T12:48:51.153Z,99432.28
2023-10-18T12:51:19.161Z,99431.72
2023-10-18T12:53:49.615Z,99425.38
2023-10-18T12:56:21.885Z,99418.22
2023-10-18T12:59:18.285Z,99417.34
2023-10-18T13:01:47.817Z,99412.53
2023-10-18T13:04:20.897Z,99409.81
2023-10-18T13:06:48.674Z,99395.53
2023-10-18T13:09:22.709Z,99409.59
2023-10-18T13:11:51.434Z,99400.34
2023-10-18T13:14:25.737Z,99395.19
2023-10-18T13:16:53.321Z,99385.66
2023-10-18T13:19:20.473Z,99383.97
2023-10-18T13:21:50.734Z,99379.28
2023-10-18T13:24:26.472Z,99376.84
2023-10-18T13:26:54.653Z,99371.53
2023-10-18T13:29:22.409Z,99362.22
2023-10-18T13:31:53.535Z,99361.91
2023-10-18T13:34:20.719Z,99343.06
2023-10-18T13:36:54.906Z,99347.97
2023-10-18T13:39:24.343Z,99351.13
2023-10-18T13:41:51.203Z,99345.13
2023-10-18T13:44:21.002Z,99337.84
2023-10-18T13:49:29.054Z,99327.28
2023-10-18T13:51:56.111Z,99317.00
2023-10-18T13:54:23.587Z,99316.25
2023-10-18T13:56:50.573Z,99316.38
2023-10-18T13:59:21.564Z,99311.13
2023-10-18T14:01:50.847Z,99307.69
2023-10-18T14:04:26.482Z,99300.56
2023-10-18T14:06:55.748Z,99299.06
2023-10-18T14:09:24.549Z,99295.41
2023-10-18T14:11:52.723Z,99287.25
2023-10-18T14:14:19.945Z,99280.78
2023-10-18T14:16:47.615Z,99272.16
2023-10-18T14:19:14.697Z,99267.53
2023-10-18T14:21:43.714Z,99256.22
2023-10-18T14:24:16.690Z,99249.81
2023-10-18T14:26:45.032Z,99252.53
2023-10-18T14:29:13.307Z,99236.78
2023-10-18T14:31:40.924Z,99236.63
2023-10-18T14:34:08.735Z,99235.59
2023-10-18T14:36:37.243Z,99234.44
2023-10-18T14:39:08.199Z,99239.19
2023-10-18T14:41:35.525Z,99232.34
2023-10-18T14:44:03.115Z,99231.44
2023-10-18T14:46:32.585Z,99225.84
2023-10-18T14:49:01.472Z,99218.81
2023-10-18T14:51:30.123Z,99220.66
2023-10-18T14:53:56.929Z,99212.88
2023-10-18T14:56:24.681Z,99207.78
2023-10-18T14:58:52.709Z,99208.50
2023-10-18T15:01:19.719Z,99199.69
2023-10-18T15:03:47.959Z,99209.47
2023-10-18T15:06:18.887Z,99201.50
2023-10-18T15:08:47.715Z,99204.06
2023-10-18T15:11:16.331Z,99206.66
2023-10-18T15:13:50.176Z,99198.75
2023-10-18T15:16:18.734Z,99200.59
2023-10-18T15:18:49.340Z,99196.50
2023-10-18T15:21:17.165Z,99188.69
2023-10-18T15:23:47.198Z,99187.81
2023-10-18T15:26:27.011Z,99179.03
2023-10-18T15:28:54.329Z,99181.59
2023-10-18T15:31:22.761Z,99182.47
2023-10-18T15:33:49.737Z,99178.19
2023-10-18T15:36:22.645Z,99177.31
2023-10-18T15:38:56.526Z,99175.50
2023-10-18T15:41:24.688Z,99181.00
2023-10-18T15:43:53.838Z,99173.13
2023-10-18T15:46:42.745Z,99167.84
2023-10-18T15:49:10.240Z,99174.00
2023-10-18T15:51:37.225Z,99163.50
2023-10-18T15:54:07.453Z,99158.38
2023-10-18T15:56:34.809Z,99152.31
2023-10-18T15:59:02.667Z,99149.69
2023-10-18T16:01:36.033Z,99144.44
2023-10-18T16:04:09.604Z,99148.06
2023-10-18T16:06:36.544Z,99145.47
2023-10-18T16:09:10.949Z,99141.03
2023-10-18T16:11:39.361Z,99135.75
2023-10-18T16:14:08.588Z,99137.63
2023-10-18T16:16:35.490Z,99134.28
2023-10-18T16:19:02.339Z,99128.91
2023-10-18T16:21:29.143Z,99128.00
2023-10-18T16:23:55.825Z,99127.06
2023-10-18T16:26:24.526Z,99127.06
2023-10-18T16:28:51.581Z,99131.41
2023-10-18T16:31:18.917Z,99128.78
2023-10-18T16:33:50.132Z,99132.22
2023-10-18T16:36:18.693Z,99118.34
2023-10-18T16:38:47.668Z,99124.41
2023-10-18T16:41:15.241Z,99119.19
2023-10-18T16:43:42.577Z,99122.06
2023-10-18T16:46:12.519Z,99123.78
2023-10-18T16:48:41.274Z,99117.72
2023-10-18T16:51:12.150Z,99127.19
2023-10-18T16:53:42.877Z,99131.66
2023-10-18T16:56:10.399Z,99122.06
2023-10-18T16:58:37.552Z,99110.72
2023-10-18T17:01:14.185Z,99109.81
2023-10-18T17:03:43.289Z,99113.28
2023-10-18T17:06:14.373Z,99109.75
2023-10-18T17:08:42.997Z,99108.28
2023-10-18T17:11:11.764Z,99103.75
2023-10-18T17:13:39.014Z,99101.94
2023-10-18T17:16:07.754Z,99102.84
2023-10-18T17:18:35.452Z,99102.78
2023-10-18T17:21:18.419Z,99086.19
2023-10-18T17:23:46.444Z,99087.16
2023-10-18T17:26:15.622Z,99085.31
2023-10-18T17:28:43.044Z,99088.13
2023-10-18T17:31:10.856Z,99078.59
2023-10-18T17:33:37.676Z,99076.75
2023-10-18T17:36:05.196Z,99075.88
2023-10-18T17:38:33.575Z,99075.31
2023-10-18T17:41:00.984Z,99063.97
2023-10-18T17:43:27.966Z,99068.56
2023-10-18T17:45:55.272Z,99054.50
2023-10-18T17:48:22.055Z,99044.13
2023-10-18T17:50:48.769Z,99048.53
2023-10-18T17:53:16.081Z,99053.16
2023-10-18T17:55:46.210Z,99044.38
2023-10-18T17:58:16.151Z,99040.03
2023-10-18T18:00:46.168Z,99037.28
2023-10-18T18:03:15.215Z,99026.97
2023-10-18T18:05:45.216Z,99027.16
2023-10-18T18:08:12.749Z,99027.03
2023-10-18T18:10:48.930Z,99025.44
2023-10-18T18:13:16.433Z,99021.34
2023-10-18T18:15:43.818Z,99017.03
2023-10-18T18:18:12.811Z,99008.28
2023-10-18T18:20:41.816Z,99006.34
2023-10-18T18:23:09.683Z,98994.13
2023-10-18T18:25:36.543Z,98999.44
2023-10-18T18:28:03.617Z,98987.09
2023-10-18T18:30:30.926Z,98986.13
2023-10-18T18:33:00.740Z,98987.09
2023-10-18T18:35:28.375Z,98982.97
2023-10-18T18:37:55.266Z,98984.53
2023-10-18T18:40:22.512Z,98980.88
2023-10-18T18:42:49.886Z,98988.03
2023-10-18T18:45:20.596Z,98982.78
2023-10-18T18:47:48.295Z,98980.94
2023-10-18T18:50:15.692Z,98980.75
2023-10-18T18:52:45.481Z,98981.63
2023-10-18T18:55:17.957Z,98991.88
2023-10-18T18:57:47.412Z,98989.50
2023-10-18T19:00:17.483Z,98982.47
2023-10-18T19:02:57.111Z,98983.38
2023-10-18T19:05:24.684Z,98976.38
2023-10-18T19:07:53.222Z,98981.50
2023-10-18T19:10:21.624Z,98985.03
2023-10-18T19:12:49.408Z,98984.91
2023-10-18T19:15:22.075Z,98978.88
2023-10-18T19:17:50.862Z,98981.56
2023-10-18T19:20:19.558Z,98976.38
2023-10-18T19:22:51.089Z,98978.19
2023-10-18T19:25:19.565Z,98973.94
2023-10-18T19:27:47.751Z,98972.28
2023-10-18T19:30:14.899Z,98971.47
2023-10-18T19:32:41.783Z,98975.25
2023-10-18T19:35:10.696Z,98968.66
2023-10-18T19:37:38.560Z,98967.38
2023-10-18T19:40:07.111Z,98966.88
2023-10-18T19:42:33.955Z,98969.84
2023-10-18T19:45:00.803Z,98969.44
2023-10-18T19:47:29.315Z,98970.56
2023-10-18T19:49:56.108Z,98965.63
2023-10-18T19:52:23.188Z,98968.41
2023-10-18T19:54:50.024Z,98961.56
2023-10-18T19:57:16.855Z,98956.63
2023-10-18T19:59:43.673Z,98966.28
2023-10-18T20:02:11.778Z,98965.56
2023-10-18T20:04:38.628Z,98962.00
2023-10-18T20:07:05.466Z,98960.34
2023-10-18T20:09:35.741Z,98959.66
2023-10-18T20:12:02.904Z,98957.94
2023-10-18T20:14:30.423Z,98959.66
2023-10-18T20:16:57.246Z,98952.69
2023-10-18T20:19:24.020Z,98946.81
2023-10-18T20:21:50.848Z,98951.09
2023-10-18T20:24:17.640Z,98953.81
2023-10-18T20:26:44.430Z,98941.00
2023-10-18T20:29:11.986Z,98947.25
2023-10-18T20:31:39.560Z,98939.13
2023-10-18T20:34:08.325Z,98930.69
2023-10-18T20:36:35.853Z,98937.06
2023-10-18T20:39:02.567Z,98926.59
2023-10-18T20:41:30.466Z,98912.56
2023-10-18T20:43:59.379Z,98912.44
2023-10-18T20:46:26.333Z,98925.81
2023-10-18T20:48:55.729Z,98920.53
2023-10-18T20:51:22.587Z,98919.84
2023-10-18T20:53:55.929Z,98918.03
2023-10-18T20:56:23.381Z,98922.56
2023-10-18T20:58:50.611Z,98920.81
2023-10-18T21:01:25.426Z,98919.03
2023-10-18T21:03:52.213Z,98923.53
2023-10-18T21:06:24.911Z,98923.47
2023-10-18T21:08:52.014Z,98910.63
2023-10-18T21:11:18.901Z,98917.88
2023-10-18T21:13:46.553Z,98902.88
2023-10-18T21:16:16.511Z,98906.50
2023-10-18T21:18:43.967Z,98907.28
2023-10-18T21:21:12.429Z,98908.34
2023-10-18T21:23:40.274Z,98917.31
2023-10-18T21:26:13.443Z,98916.47
2023-10-18T21:28:41.323Z,98901.56
2023-10-18T21:31:12.095Z,98905.06
2023-10-18T21:33:39.383Z,98906.28
2023-10-18T21:36:12.084Z,98887.78
2023-10-18T21:38:41.197Z,98893.06
2023-10-18T21:41:12.568Z,98878.91
2023-10-18T21:43:39.309Z,98872.75
2023-10-18T21:46:06.942Z,98871.16
2023-10-18T21:48:35.979Z,98864.97
2023-10-18T21:51:07.808Z,98854.50
2023-10-18T21:53:34.676Z,98855.94
2023-10-18T21:56:02.216Z,98844.78
2023-10-18T21:58:32.070Z,98844.78
2023-10-18T22:01:04.049Z,98841.34
2023-10-18T22:03:37.411Z,98836.22
2023-10-18T22:06:08.690Z,98831.47
2023-10-18T22:08:39.511Z,98832.50
2023-10-18T22:11:06.838Z,98829.09
2023-10-18T22:13:34.394Z,98813.56
2023-10-18T22:16:02.960Z,98818.81
2023-10-18T22:18:44.336Z,98809.28
2023-10-18T22:21:11.168Z,98815.28
2023-10-18T22:23:38.112Z,98814.34
2023-10-18T22:28:37.170Z,98803.09
2023-10-18T22:31:04.623Z,98806.66
2023-10-18T22:33:31.459Z,98811.84
2023-10-18T22:35:58.422Z,98815.47
2023-10-18T22:38:25.340Z,98806.66
2023-10-18T22:41:12.140Z,98805.72
2023-10-18T22:43:39.887Z,98819.56
2023-10-18T22:46:06.942Z,98808.22
2023-10-18T22:48:52.016Z,98815.19
2023-10-18T22:51:35.473Z,98817.00
2023-10-18T22:54:07.577Z,98810.81
2023-10-18T22:56:49.486Z,98817.78
2023-10-18T22:59:30.521Z,98805.59
2023-10-18T23:01:58.059Z,98806.38
2023-10-18T23:04:27.760Z,98802.91
2023-10-18T23:06:58.426Z,98799.31
2023-10-18T23:09:25.148Z,98797.72
2023-10-18T23:11:57.709Z,98796.81
2023-10-18T23:14:25.169Z,98795.13
2023-10-18T23:16:52.978Z,98793.41
2023-10-18T23:19:29.289Z,98799.47
2023-10-18T23:22:22.972Z,98798.63
2023-10-18T23:24:50.485Z,98796.06
2023-10-18T23:27:36.160Z,98790.84
2023-10-18T23:30:39.262Z,98789.34
2023-10-18T23:33:15.904Z,98781.31
2023-10-18T23:35:48.438Z,98780.47
2023-10-18T23:38:25.313Z,98777.91
2023-10-18T23:41:08.356Z,98777.16
2023-10-18T23:43:47.936Z,98776.19
2023-10-18T23:46:50.233Z,98767.44
2023-10-18T23:49:25.839Z,98766.56
2023-10-18T23:52:08.586Z,98763.06
2023-10-18T23:54:37.678Z,98764.84
2023-10-18T23:57:11.818Z,98762.03
2023-10-18T23:59:43.972Z,98756.00
